createdAt,value
2017-06-27T00:00:16.766Z,0
2017-06-27T00:01:25.656Z,0
2017-06-27T00:02:34.554Z,0
2017-06-27T00:03:43.443Z,0
2017-06-27T00:04:52.814Z,0
2017-06-27T00:06:01.705Z,0
2017-06-27T00:07:11.242Z,0
2017-06-27T00:08:20.788Z,0
2017-06-27T00:09:29.677Z,0
2017-06-27T00:10:38.714Z,0
2017-06-27T00:11:47.605Z,0
2017-06-27T00:12:56.814Z,0
2017-06-27T00:14:05.705Z,0
2017-06-27T00:15:15.243Z,0
2017-06-27T00:16:24.186Z,0
2017-06-27T00:17:33.400Z,0
2017-06-27T00:18:42.286Z,0
2017-06-27T00:19:51.500Z,0
2017-06-27T00:21:00.393Z,0
2017-06-27T00:22:09.658Z,0
2017-06-27T00:23:18.874Z,0
2017-06-27T00:24:28.084Z,0
2017-06-27T00:25:37.295Z,0
2017-06-27T00:26:46.187Z,0
2017-06-27T00:27:55.079Z,0
2017-06-27T00:29:03.966Z,0
2017-06-27T00:30:12.853Z,0
2017-06-27T00:31:21.739Z,0
2017-06-27T00:32:30.630Z,0
2017-06-27T00:33:39.769Z,0
2017-06-27T00:34:48.983Z,0
2017-06-27T00:35:57.870Z,0
2017-06-27T00:37:07.083Z,0
2017-06-27T00:38:16.296Z,0
2017-06-27T00:39:25.661Z,0
2017-06-27T00:40:34.873Z,0
2017-06-27T00:41:43.757Z,0
2017-06-27T00:42:52.642Z,0
2017-06-27T00:44:01.856Z,0
2017-06-27T00:45:11.128Z,0
2017-06-27T00:46:20.018Z,0
2017-06-27T00:47:28.906Z,0
2017-06-27T00:48:38.116Z,0
2017-06-27T00:49:47.004Z,0
2017-06-27T00:50:56.615Z,0
2017-06-27T00:52:05.545Z,0
2017-06-27T00:53:14.432Z,0
2017-06-27T00:54:23.320Z,0
2017-06-27T00:55:32.205Z,0
2017-06-27T00:56:41.096Z,0
2017-06-27T00:57:50.635Z,0
2017-06-27T00:58:59.526Z,0
2017-06-27T01:00:08.737Z,0
2017-06-27T01:01:17.950Z,0
2017-06-27T01:02:26.986Z,0
2017-06-27T01:03:36.521Z,0
2017-06-27T01:04:45.734Z,0
2017-06-27T01:05:54.951Z,0
2017-06-27T01:07:03.841Z,0
2017-06-27T01:08:13.103Z,0
2017-06-27T01:09:21.989Z,0
2017-06-27T01:10:30.879Z,0
2017-06-27T01:11:40.088Z,0
2017-06-27T01:12:48.970Z,0
2017-06-27T01:13:58.014Z,0
2017-06-27T01:15:06.903Z,0
2017-06-27T01:16:15.799Z,0
2017-06-27T01:17:25.037Z,0
2017-06-27T01:18:34.276Z,0
2017-06-27T01:19:43.735Z,0
2017-06-27T01:20:52.622Z,0
2017-06-27T01:22:01.509Z,0
2017-06-27T01:23:10.396Z,0
2017-06-27T01:24:19.288Z,0
2017-06-27T01:25:28.326Z,0
2017-06-27T01:26:37.214Z,0
2017-06-27T01:27:46.098Z,0
2017-06-27T01:28:54.983Z,0
2017-06-27T01:30:04.195Z,0
2017-06-27T01:31:13.185Z,0
2017-06-27T01:32:22.076Z,0
2017-06-27T01:33:30.961Z,0
2017-06-27T01:34:39.878Z,0
2017-06-27T01:35:49.090Z,0
2017-06-27T01:36:58.126Z,0
2017-06-27T01:38:07.012Z,0
2017-06-27T01:39:15.898Z,0
2017-06-27T01:40:24.791Z,0
2017-06-27T01:41:33.678Z,0
2017-06-27T01:42:42.671Z,0
2017-06-27T01:43:51.557Z,0
2017-06-27T01:45:00.771Z,0
2017-06-27T01:46:09.979Z,0
2017-06-27T01:47:18.866Z,0
2017-06-27T01:48:27.755Z,0
2017-06-27T01:49:36.971Z,0
2017-06-27T01:50:45.864Z,0
2017-06-27T01:51:54.749Z,0
2017-06-27T01:53:03.636Z,0
2017-06-27T01:54:12.853Z,0
2017-06-27T01:55:22.065Z,0
2017-06-27T01:56:31.599Z,0
2017-06-27T01:57:40.819Z,0
2017-06-27T01:58:50.037Z,0
2017-06-27T01:59:59.327Z,0
2017-06-27T02:01:08.213Z,0
2017-06-27T02:02:17.098Z,0
2017-06-27T02:03:25.982Z,0
2017-06-27T02:04:35.198Z,0
2017-06-27T02:05:44.137Z,0
2017-06-27T02:06:53.019Z,0
2017-06-27T02:08:01.902Z,0
2017-06-27T02:09:10.785Z,0
2017-06-27T02:10:19.677Z,0
2017-06-27T02:11:28.717Z,0
2017-06-27T02:12:37.934Z,0
2017-06-27T02:13:47.499Z,0
2017-06-27T02:14:56.382Z,0
2017-06-27T02:16:05.593Z,0
2017-06-27T02:17:14.632Z,0
2017-06-27T02:18:23.520Z,0
2017-06-27T02:19:32.404Z,0
2017-06-27T02:20:41.289Z,0
2017-06-27T02:21:50.175Z,0
2017-06-27T02:22:59.065Z,0
2017-06-27T02:24:08.277Z,0
2017-06-27T02:25:17.163Z,0
2017-06-27T02:26:26.045Z,0
2017-06-27T02:27:34.932Z,0
2017-06-27T02:28:43.871Z,0
2017-06-27T02:29:52.761Z,0
2017-06-27T02:31:01.645Z,0
2017-06-27T02:32:10.854Z,0
2017-06-27T02:33:20.062Z,0
2017-06-27T02:34:29.100Z,0
2017-06-27T02:35:38.639Z,0
2017-06-27T02:36:47.529Z,0
2017-06-27T02:37:56.737Z,0
2017-06-27T02:39:05.623Z,0
2017-06-27T02:40:14.664Z,0
2017-06-27T02:41:23.881Z,0
2017-06-27T02:42:32.768Z,0
2017-06-27T02:43:41.987Z,0
2017-06-27T02:44:50.875Z,0
2017-06-27T02:45:59.918Z,0
2017-06-27T02:47:08.806Z,0
2017-06-27T02:48:18.018Z,0
2017-06-27T02:49:26.904Z,0
2017-06-27T02:50:35.791Z,0
2017-06-27T02:51:45.201Z,5
2017-06-27T02:52:54.745Z,5
2017-06-27T02:54:03.956Z,5
2017-06-27T02:55:13.175Z,5
2017-06-27T02:56:22.056Z,5
2017-06-27T02:57:31.366Z,5
2017-06-27T02:58:40.249Z,5
2017-06-27T02:59:49.457Z,5
2017-06-27T03:00:58.349Z,5
2017-06-27T03:02:07.879Z,10
2017-06-27T03:03:16.763Z,10
2017-06-27T03:04:25.645Z,10
2017-06-27T03:05:34.528Z,10
2017-06-27T03:06:43.738Z,10
2017-06-27T03:07:53.600Z,10
2017-06-27T03:09:02.541Z,15
2017-06-27T03:10:11.771Z,15
2017-06-27T03:11:20.979Z,15
2017-06-27T03:12:29.864Z,15
2017-06-27T03:13:38.748Z,15
2017-06-27T03:14:47.736Z,20
2017-06-27T03:15:56.625Z,20
2017-06-27T03:17:05.508Z,20
2017-06-27T03:18:14.393Z,20
2017-06-27T03:19:23.279Z,25
2017-06-27T03:20:32.218Z,25
2017-06-27T03:21:41.106Z,25
2017-06-27T03:22:49.994Z,25
2017-06-27T03:23:58.885Z,30
2017-06-27T03:25:07.773Z,30
2017-06-27T03:26:16.662Z,30
2017-06-27T03:27:25.546Z,35
2017-06-27T03:28:34.428Z,35
2017-06-27T03:29:43.635Z,35
2017-06-27T03:30:53.170Z,40
2017-06-27T03:32:02.212Z,40
2017-06-27T03:33:11.747Z,40
2017-06-27T03:34:20.633Z,45
2017-06-27T03:35:29.520Z,45
2017-06-27T03:36:38.734Z,45
2017-06-27T03:37:47.716Z,50
2017-06-27T03:38:56.601Z,50
2017-06-27T03:40:05.485Z,50
2017-06-27T03:41:14.700Z,55
2017-06-27T03:42:23.592Z,55
2017-06-27T03:43:32.628Z,55
2017-06-27T03:44:41.515Z,60
2017-06-27T03:45:50.397Z,60
2017-06-27T03:46:59.602Z,60
2017-06-27T03:48:08.487Z,60
2017-06-27T03:49:17.851Z,65
2017-06-27T03:50:27.394Z,65
2017-06-27T03:51:36.283Z,70
2017-06-27T03:52:45.169Z,70
2017-06-27T03:53:54.379Z,70
2017-06-27T03:55:03.436Z,75
2017-06-27T03:56:12.650Z,80
2017-06-27T03:57:21.540Z,80
2017-06-27T03:58:30.778Z,80
2017-06-27T03:59:39.663Z,80
2017-06-27T04:00:48.651Z,80
2017-06-27T04:01:57.860Z,80
2017-06-27T04:03:07.068Z,85
2017-06-27T04:04:16.609Z,85
2017-06-27T04:05:25.497Z,85
2017-06-27T04:06:35.010Z,85
2017-06-27T04:07:43.895Z,90
2017-06-27T04:08:52.785Z,90
2017-06-27T04:10:01.672Z,90
2017-06-27T04:11:10.884Z,90
2017-06-27T04:12:19.919Z,90
2017-06-27T04:13:28.803Z,90
2017-06-27T04:14:37.691Z,90
2017-06-27T04:15:46.581Z,95
2017-06-27T04:16:55.470Z,95
2017-06-27T04:18:04.829Z,95
2017-06-27T04:19:14.042Z,95
2017-06-27T04:20:23.255Z,95
2017-06-27T04:21:32.169Z,95
2017-06-27T04:22:41.065Z,95
2017-06-27T04:23:50.429Z,95
2017-06-27T04:24:59.344Z,95
2017-06-27T04:26:08.555Z,95
2017-06-27T04:27:17.440Z,95
2017-06-27T04:28:26.654Z,100
2017-06-27T04:29:35.541Z,100
2017-06-27T04:30:44.478Z,100
2017-06-27T04:31:53.364Z,100
2017-06-27T04:33:02.249Z,100
2017-06-27T04:34:11.460Z,105
2017-06-27T04:35:21.249Z,105
2017-06-27T04:36:30.141Z,105
2017-06-27T04:37:39.027Z,105
2017-06-27T04:38:47.912Z,110
2017-06-27T04:39:56.799Z,110
2017-06-27T04:41:06.014Z,110
2017-06-27T04:42:14.905Z,110
2017-06-27T04:43:23.789Z,110
2017-06-27T04:44:32.676Z,110
2017-06-27T04:45:41.564Z,110
2017-06-27T04:46:50.943Z,120
2017-06-27T04:47:59.831Z,115
2017-06-27T04:49:08.718Z,115
2017-06-27T04:50:17.928Z,115
2017-06-27T04:51:26.814Z,120
2017-06-27T04:52:35.879Z,120
2017-06-27T04:53:45.103Z,125
2017-06-27T04:54:53.990Z,125
2017-06-27T04:56:02.876Z,125
2017-06-27T04:57:11.762Z,125
2017-06-27T04:58:20.812Z,125
2017-06-27T04:59:29.700Z,125
2017-06-27T05:00:38.589Z,125
2017-06-27T05:01:47.800Z,125
2017-06-27T05:02:57.013Z,125
2017-06-27T05:04:06.055Z,125
2017-06-27T05:05:14.948Z,125
2017-06-27T05:06:23.836Z,125
2017-06-27T05:07:32.725Z,125
2017-06-27T05:08:41.610Z,130
2017-06-27T05:09:50.970Z,130
2017-06-27T05:10:59.859Z,130
2017-06-27T05:12:09.073Z,130
2017-06-27T05:13:17.962Z,130
2017-06-27T05:14:26.849Z,135
2017-06-27T05:15:36.361Z,135
2017-06-27T05:16:45.249Z,135
2017-06-27T05:17:54.145Z,140
2017-06-27T05:19:03.356Z,145
2017-06-27T05:20:12.241Z,145
2017-06-27T05:21:21.383Z,150
2017-06-27T05:22:30.635Z,150
2017-06-27T05:23:39.852Z,155
2017-06-27T05:24:48.745Z,160
2017-06-27T05:25:57.637Z,160
2017-06-27T05:27:06.524Z,160
2017-06-27T05:28:15.409Z,160
2017-06-27T05:29:24.297Z,160
2017-06-27T05:30:33.189Z,165
2017-06-27T05:31:42.079Z,160
2017-06-27T05:32:51.344Z,160
2017-06-27T05:34:00.553Z,160
2017-06-27T05:35:09.773Z,160
2017-06-27T05:36:18.990Z,160
2017-06-27T05:37:28.205Z,160
2017-06-27T05:38:37.156Z,160
2017-06-27T05:39:46.366Z,160
2017-06-27T05:40:55.261Z,160
2017-06-27T05:42:04.153Z,155
2017-06-27T05:43:13.043Z,160
2017-06-27T05:44:22.581Z,160
2017-06-27T05:45:31.794Z,160
2017-06-27T05:46:40.681Z,160
2017-06-27T05:47:49.807Z,165
2017-06-27T05:48:59.344Z,165
2017-06-27T05:50:08.397Z,165
2017-06-27T05:51:17.739Z,165
2017-06-27T05:52:27.554Z,170
2017-06-27T05:53:36.550Z,175
2017-06-27T05:54:45.911Z,180
2017-06-27T05:55:54.994Z,185
2017-06-27T05:57:04.051Z,190
2017-06-27T05:58:13.084Z,200
2017-06-27T05:59:22.017Z,210
2017-06-27T06:00:31.489Z,215
2017-06-27T06:01:40.668Z,215
2017-06-27T06:02:50.236Z,220
2017-06-27T06:03:59.527Z,225
2017-06-27T06:05:08.549Z,230
2017-06-27T06:06:18.654Z,235
2017-06-27T06:07:27.673Z,240
2017-06-27T06:08:36.669Z,235
2017-06-27T06:09:45.675Z,235
2017-06-27T06:10:55.017Z,235
2017-06-27T06:12:04.286Z,220
2017-06-27T06:13:13.453Z,220
2017-06-27T06:14:22.764Z,195
2017-06-27T06:15:31.897Z,185
2017-06-27T06:16:40.918Z,175
2017-06-27T06:17:49.901Z,175
2017-06-27T06:18:59.056Z,175
2017-06-27T06:20:08.720Z,170
2017-06-27T06:21:18.037Z,170
2017-06-27T06:22:27.348Z,170
2017-06-27T06:23:36.324Z,165
2017-06-27T06:24:45.360Z,165
2017-06-27T06:25:54.900Z,160
2017-06-27T06:27:03.841Z,165
2017-06-27T06:28:12.730Z,165
2017-06-27T06:29:21.620Z,165
2017-06-27T06:30:30.515Z,170
2017-06-27T06:31:40.713Z,170
2017-06-27T06:32:49.606Z,165
2017-06-27T06:33:58.498Z,170
2017-06-27T06:35:07.716Z,165
2017-06-27T06:36:17.616Z,170
2017-06-27T06:37:26.830Z,175
2017-06-27T06:38:35.722Z,175
2017-06-27T06:39:44.942Z,180
2017-06-27T06:40:54.482Z,175
2017-06-27T06:42:03.372Z,175
2017-06-27T06:43:12.586Z,170
2017-06-27T06:44:21.827Z,170
2017-06-27T06:45:30.719Z,170
2017-06-27T06:46:39.642Z,165
2017-06-27T06:47:49.132Z,170
2017-06-27T06:48:58.408Z,175
2017-06-27T06:50:08.319Z,170
2017-06-27T06:51:17.349Z,170
2017-06-27T06:52:26.570Z,170
2017-06-27T06:53:35.458Z,175
2017-06-27T06:54:45.328Z,180
2017-06-27T06:55:54.550Z,180
2017-06-27T06:57:03.445Z,185
2017-06-27T06:58:12.634Z,185
2017-06-27T06:59:21.846Z,185
2017-06-27T07:00:30.740Z,185
2017-06-27T07:01:39.965Z,185
2017-06-27T07:02:49.185Z,185
2017-06-27T07:03:58.552Z,190
2017-06-27T07:05:07.769Z,190
2017-06-27T07:06:16.987Z,190
2017-06-27T07:07:26.202Z,185
2017-06-27T07:08:35.089Z,185
2017-06-27T07:09:44.933Z,180
2017-06-27T07:10:54.152Z,185
2017-06-27T07:12:03.368Z,190
2017-06-27T07:13:12.258Z,190
2017-06-27T07:14:21.813Z,190
2017-06-27T07:15:30.856Z,195
2017-06-27T07:16:40.065Z,195
2017-06-27T07:17:49.608Z,200
2017-06-27T07:18:58.825Z,200
2017-06-27T07:20:08.042Z,205
2017-06-27T07:21:17.187Z,210
2017-06-27T07:22:26.082Z,210
2017-06-27T07:23:34.972Z,210
2017-06-27T07:24:44.199Z,210
2017-06-27T07:25:53.095Z,210
2017-06-27T07:27:02.137Z,210
2017-06-27T07:28:11.356Z,210
2017-06-27T07:29:20.581Z,215
2017-06-27T07:30:30.122Z,215
2017-06-27T07:31:39.012Z,215
2017-06-27T07:32:48.955Z,215
2017-06-27T07:33:58.173Z,210
2017-06-27T07:35:07.062Z,205
2017-06-27T07:36:16.603Z,205
2017-06-27T07:37:25.495Z,205
2017-06-27T07:38:34.436Z,205
2017-06-27T07:39:43.331Z,210
2017-06-27T07:40:52.548Z,210
2017-06-27T07:42:01.763Z,210
2017-06-27T07:43:10.983Z,210
2017-06-27T07:44:20.674Z,210
2017-06-27T07:45:29.573Z,210
2017-06-27T07:46:39.115Z,210
2017-06-27T07:47:48.016Z,215
2017-06-27T07:48:56.905Z,220
2017-06-27T07:50:06.272Z,215
2017-06-27T07:51:16.142Z,210
2017-06-27T07:52:25.035Z,215
2017-06-27T07:53:33.923Z,215
2017-06-27T07:54:43.139Z,215
2017-06-27T07:55:52.712Z,215
2017-06-27T07:57:01.608Z,215
2017-06-27T07:58:10.500Z,215
2017-06-27T07:59:20.041Z,215
2017-06-27T08:00:29.254Z,205
2017-06-27T08:01:38.776Z,205
2017-06-27T08:02:47.993Z,205
2017-06-27T08:03:57.211Z,205
2017-06-27T08:05:06.435Z,205
2017-06-27T08:06:16.301Z,200
2017-06-27T08:07:25.591Z,200
2017-06-27T08:08:34.483Z,195
2017-06-27T08:09:43.698Z,190
2017-06-27T08:10:53.259Z,195
2017-06-27T08:12:02.477Z,190
2017-06-27T08:13:11.529Z,190
2017-06-27T08:14:20.420Z,195
2017-06-27T08:15:29.314Z,195
2017-06-27T08:16:38.535Z,195
2017-06-27T08:17:47.447Z,195
2017-06-27T08:18:56.518Z,195
2017-06-27T08:20:05.413Z,200
2017-06-27T08:21:14.639Z,205
2017-06-27T08:22:24.184Z,210
2017-06-27T08:23:33.076Z,215
2017-06-27T08:24:42.079Z,215
2017-06-27T08:25:51.295Z,205
2017-06-27T08:27:00.188Z,200
2017-06-27T08:28:09.084Z,185
2017-06-27T08:29:18.308Z,185
2017-06-27T08:30:27.360Z,190
2017-06-27T08:31:36.250Z,190
2017-06-27T08:32:45.463Z,190
2017-06-27T08:33:54.362Z,190
2017-06-27T08:35:03.576Z,200
2017-06-27T08:36:13.269Z,205
2017-06-27T08:37:22.815Z,210
2017-06-27T08:38:32.357Z,205
2017-06-27T08:39:41.282Z,205
2017-06-27T08:40:50.501Z,195
2017-06-27T08:41:59.974Z,195
2017-06-27T08:43:09.191Z,195
2017-06-27T08:44:18.411Z,195
2017-06-27T08:45:27.630Z,195
2017-06-27T08:46:36.529Z,195
2017-06-27T08:47:45.996Z,195
2017-06-27T08:48:54.886Z,190
2017-06-27T08:50:03.775Z,190
2017-06-27T08:51:12.668Z,190
2017-06-27T08:52:21.886Z,195
2017-06-27T08:53:30.929Z,200
2017-06-27T08:54:40.142Z,195
2017-06-27T08:55:49.361Z,195
2017-06-27T08:56:58.253Z,200
2017-06-27T08:58:07.140Z,200
2017-06-27T08:59:16.188Z,200
2017-06-27T09:00:25.081Z,195
2017-06-27T09:01:34.302Z,190
2017-06-27T09:02:43.196Z,190
2017-06-27T09:03:52.413Z,195
2017-06-27T09:05:01.306Z,200
2017-06-27T09:06:10.202Z,210
2017-06-27T09:07:19.419Z,215
2017-06-27T09:08:28.310Z,215
2017-06-27T09:09:37.855Z,220
2017-06-27T09:10:47.302Z,225
2017-06-27T09:11:56.523Z,225
2017-06-27T09:13:05.415Z,230
2017-06-27T09:14:14.313Z,230
2017-06-27T09:15:23.859Z,240
2017-06-27T09:16:33.085Z,250
2017-06-27T09:17:41.978Z,260
2017-06-27T09:18:51.520Z,275
2017-06-27T09:20:00.738Z,290
2017-06-27T09:21:09.632Z,300
2017-06-27T09:22:19.173Z,305
2017-06-27T09:23:28.398Z,310
2017-06-27T09:24:37.618Z,320
2017-06-27T09:25:46.518Z,335
2017-06-27T09:26:55.415Z,345
2017-06-27T09:28:05.004Z,355
2017-06-27T09:29:13.908Z,360
2017-06-27T09:30:23.125Z,350
2017-06-27T09:31:32.017Z,345
2017-06-27T09:32:40.918Z,350
2017-06-27T09:33:50.238Z,350
2017-06-27T09:34:59.125Z,355
2017-06-27T09:36:08.341Z,365
2017-06-27T09:37:17.889Z,375
2017-06-27T09:38:27.106Z,390
2017-06-27T09:39:36.153Z,400
2017-06-27T09:40:45.044Z,410
2017-06-27T09:41:54.279Z,420
2017-06-27T09:43:03.172Z,420
2017-06-27T09:44:12.067Z,415
2017-06-27T09:45:21.450Z,415
2017-06-27T09:46:30.359Z,410
2017-06-27T09:47:39.254Z,410
2017-06-27T09:48:48.470Z,405
2017-06-27T09:49:57.365Z,400
2017-06-27T09:51:06.559Z,395
2017-06-27T09:52:16.109Z,405
2017-06-27T09:53:25.004Z,405
2017-06-27T09:54:33.899Z,405
2017-06-27T09:55:43.446Z,410
2017-06-27T09:56:52.764Z,420
2017-06-27T09:58:01.656Z,435
2017-06-27T09:59:10.551Z,455
2017-06-27T10:00:19.778Z,475
2017-06-27T10:01:28.677Z,495
2017-06-27T10:02:37.971Z,505
2017-06-27T10:03:47.544Z,505
2017-06-27T10:04:56.767Z,500
2017-06-27T10:06:05.982Z,495
2017-06-27T10:07:15.199Z,475
2017-06-27T10:08:24.399Z,495
2017-06-27T10:09:33.628Z,510
2017-06-27T10:10:42.527Z,530
2017-06-27T10:11:51.752Z,560
2017-06-27T10:13:00.647Z,590
2017-06-27T10:14:10.491Z,610
2017-06-27T10:15:19.713Z,625
2017-06-27T10:16:28.929Z,625
2017-06-27T10:17:38.148Z,605
2017-06-27T10:18:47.043Z,585
2017-06-27T10:19:56.038Z,560
2017-06-27T10:21:04.942Z,565
2017-06-27T10:22:14.493Z,570
2017-06-27T10:23:24.045Z,570
2017-06-27T10:24:32.941Z,575
2017-06-27T10:25:41.934Z,580
2017-06-27T10:26:51.478Z,575
2017-06-27T10:28:00.369Z,580
2017-06-27T10:29:09.267Z,570
2017-06-27T10:30:19.145Z,570
2017-06-27T10:31:28.146Z,580
2017-06-27T10:32:37.052Z,600
2017-06-27T10:33:46.274Z,615
2017-06-27T10:34:55.499Z,610
2017-06-27T10:36:04.409Z,585
2017-06-27T10:37:13.960Z,555
2017-06-27T10:38:23.181Z,555
2017-06-27T10:39:32.428Z,530
2017-06-27T10:40:41.322Z,520
2017-06-27T10:41:50.540Z,525
2017-06-27T10:42:59.433Z,505
2017-06-27T10:44:08.328Z,490
2017-06-27T10:45:17.873Z,500
2017-06-27T10:46:27.091Z,490
2017-06-27T10:47:35.983Z,500
2017-06-27T10:48:45.506Z,535
2017-06-27T10:49:54.404Z,575
2017-06-27T10:51:03.300Z,600
2017-06-27T10:52:12.518Z,610
2017-06-27T10:53:21.739Z,615
2017-06-27T10:54:30.963Z,625
2017-06-27T10:55:39.864Z,615
2017-06-27T10:56:49.131Z,570
2017-06-27T10:57:58.351Z,550
2017-06-27T10:59:07.574Z,570
2017-06-27T11:00:17.279Z,600
2017-06-27T11:01:26.498Z,590
2017-06-27T11:02:35.393Z,625
2017-06-27T11:03:44.940Z,635
2017-06-27T11:04:54.484Z,635
2017-06-27T11:06:04.181Z,615
2017-06-27T11:07:13.409Z,620
2017-06-27T11:08:22.306Z,640
2017-06-27T11:09:31.196Z,660
2017-06-27T11:10:40.093Z,645
2017-06-27T11:11:49.367Z,660
2017-06-27T11:12:58.262Z,645
2017-06-27T11:14:07.157Z,670
2017-06-27T11:15:16.059Z,675
2017-06-27T11:16:24.954Z,665
2017-06-27T11:17:34.005Z,625
2017-06-27T11:18:42.905Z,605
2017-06-27T11:19:52.470Z,610
2017-06-27T11:21:01.370Z,610
2017-06-27T11:22:10.272Z,600
2017-06-27T11:23:20.144Z,605
2017-06-27T11:24:29.374Z,640
2017-06-27T11:25:38.272Z,635
2017-06-27T11:26:47.492Z,640
2017-06-27T11:27:56.712Z,665
2017-06-27T11:29:05.760Z,640
2017-06-27T11:30:14.990Z,585
2017-06-27T11:31:24.211Z,555
2017-06-27T11:32:33.433Z,540
2017-06-27T11:33:42.334Z,530
2017-06-27T11:34:51.339Z,525
2017-06-27T11:36:00.273Z,520
2017-06-27T11:37:09.494Z,535
2017-06-27T11:38:18.717Z,535
2017-06-27T11:39:27.939Z,505
2017-06-27T11:40:36.889Z,485
2017-06-27T11:41:45.792Z,495
2017-06-27T11:42:55.017Z,470
2017-06-27T11:44:03.914Z,460
2017-06-27T11:45:13.139Z,475
2017-06-27T11:46:22.613Z,485
2017-06-27T11:47:31.512Z,500
2017-06-27T11:48:40.408Z,500
2017-06-27T11:49:49.952Z,515
2017-06-27T11:50:58.854Z,530
2017-06-27T11:52:08.406Z,545
2017-06-27T11:53:17.314Z,580
2017-06-27T11:54:26.213Z,620
2017-06-27T11:55:35.433Z,1200
2017-06-27T11:56:44.337Z,2690
2017-06-27T11:57:53.661Z,3415
2017-06-27T11:59:02.884Z,3370
2017-06-27T12:00:11.785Z,3190
2017-06-27T12:01:20.708Z,3390
2017-06-27T12:02:29.618Z,3600
2017-06-27T12:03:38.891Z,3220
2017-06-27T12:04:47.791Z,3100
2017-06-27T12:05:57.023Z,2830
2017-06-27T12:07:06.248Z,2985
2017-06-27T12:08:15.473Z,3090
2017-06-27T12:09:24.371Z,3280
2017-06-27T12:10:33.596Z,3435
2017-06-27T12:11:42.834Z,3260
2017-06-27T12:12:51.749Z,3330
2017-06-27T12:14:00.698Z,3600
2017-06-27T12:15:09.930Z,3345
2017-06-27T12:16:18.843Z,3155
2017-06-27T12:17:27.755Z,3200
2017-06-27T12:18:36.715Z,3260
2017-06-27T12:19:45.946Z,3405
2017-06-27T12:20:55.005Z,3030
2017-06-27T12:22:03.911Z,2820
2017-06-27T12:23:13.485Z,2655
2017-06-27T12:24:22.394Z,2505
2017-06-27T12:25:32.004Z,2685
2017-06-27T12:26:41.081Z,2685
2017-06-27T12:27:49.988Z,2900
2017-06-27T12:28:59.217Z,3635
2017-06-27T12:30:08.127Z,3255
2017-06-27T12:31:17.358Z,2820
2017-06-27T12:32:26.745Z,2985
2017-06-27T12:33:35.971Z,2680
2017-06-27T12:34:45.251Z,2190
2017-06-27T12:35:54.157Z,2110
2017-06-27T12:37:03.065Z,2510
2017-06-27T12:38:11.970Z,2495
2017-06-27T12:39:21.580Z,2520
2017-06-27T12:40:30.482Z,2430
2017-06-27T12:41:39.393Z,2110
2017-06-27T12:42:48.959Z,2240
2017-06-27T12:43:57.916Z,3190
2017-06-27T12:45:06.824Z,2860
2017-06-27T12:46:15.822Z,2795
2017-06-27T12:47:24.734Z,1945
2017-06-27T12:48:33.655Z,1490
2017-06-27T12:49:43.276Z,1085
2017-06-27T12:50:53.148Z,805
2017-06-27T12:52:02.395Z,760
2017-06-27T12:53:11.625Z,740
2017-06-27T12:54:21.184Z,700
2017-06-27T12:55:30.570Z,685
2017-06-27T12:56:39.472Z,695
2017-06-27T12:57:48.703Z,690
2017-06-27T12:58:57.608Z,725
2017-06-27T13:00:06.846Z,765
2017-06-27T13:01:16.376Z,820
2017-06-27T13:02:25.285Z,930
2017-06-27T13:03:34.368Z,1120
2017-06-27T13:04:43.624Z,1435
2017-06-27T13:05:52.525Z,1480
2017-06-27T13:07:01.728Z,1025
2017-06-27T13:08:10.956Z,915
2017-06-27T13:09:20.517Z,1000
2017-06-27T13:10:29.419Z,960
2017-06-27T13:11:38.644Z,945
2017-06-27T13:12:48.019Z,900
2017-06-27T13:13:56.918Z,830
2017-06-27T13:15:06.143Z,840
2017-06-27T13:16:16.016Z,1000
2017-06-27T13:17:24.928Z,1620
2017-06-27T13:18:33.828Z,1630
2017-06-27T13:19:42.733Z,2170
2017-06-27T13:20:51.963Z,2180
2017-06-27T13:22:00.880Z,1635
2017-06-27T13:23:10.430Z,1760
2017-06-27T13:24:19.816Z,2415
2017-06-27T13:25:28.726Z,2610
2017-06-27T13:26:37.630Z,1855
2017-06-27T13:27:46.555Z,1585
2017-06-27T13:28:55.463Z,1360
2017-06-27T13:30:04.690Z,2000
2017-06-27T13:31:13.917Z,1290
2017-06-27T13:32:23.143Z,1110
2017-06-27T13:33:32.049Z,1105
2017-06-27T13:34:41.602Z,1160
2017-06-27T13:35:50.661Z,1215
2017-06-27T13:36:59.889Z,1375
2017-06-27T13:38:08.796Z,1290
2017-06-27T13:39:18.092Z,1455
2017-06-27T13:40:27.000Z,1910
2017-06-27T13:41:36.236Z,3205
2017-06-27T13:42:45.472Z,3580
2017-06-27T13:43:54.713Z,3610
2017-06-27T13:45:03.965Z,3680
2017-06-27T13:46:13.537Z,3730
2017-06-27T13:47:22.552Z,2685
2017-06-27T13:48:31.504Z,2085
2017-06-27T13:49:40.760Z,2335
2017-06-27T13:50:49.664Z,2625
2017-06-27T13:51:58.896Z,1825
2017-06-27T13:53:08.278Z,1645
2017-06-27T13:54:17.514Z,1060
2017-06-27T13:55:26.422Z,810
2017-06-27T13:56:35.377Z,720
2017-06-27T13:57:45.261Z,735
2017-06-27T13:58:54.165Z,660
2017-06-27T14:00:03.077Z,620
2017-06-27T14:01:12.007Z,625
2017-06-27T14:02:21.245Z,615
2017-06-27T14:03:30.155Z,610
2017-06-27T14:04:39.269Z,610
2017-06-27T14:05:48.500Z,620
2017-06-27T14:06:57.406Z,630
2017-06-27T14:08:06.958Z,650
2017-06-27T14:09:16.524Z,655
2017-06-27T14:10:26.227Z,655
2017-06-27T14:11:35.455Z,645
2017-06-27T14:12:44.356Z,620
2017-06-27T14:13:53.260Z,595
2017-06-27T14:15:02.169Z,590
2017-06-27T14:16:11.697Z,595
2017-06-27T14:17:21.249Z,650
2017-06-27T14:18:30.476Z,690
2017-06-27T14:19:39.745Z,685
2017-06-27T14:20:48.970Z,700
2017-06-27T14:21:58.121Z,700
2017-06-27T14:23:07.355Z,690
2017-06-27T14:24:16.578Z,690
2017-06-27T14:25:25.476Z,695
2017-06-27T14:26:34.379Z,745
2017-06-27T14:27:44.008Z,780
2017-06-27T14:28:52.911Z,805
2017-06-27T14:30:02.134Z,895
2017-06-27T14:31:11.366Z,895
2017-06-27T14:32:20.602Z,740
2017-06-27T14:33:29.655Z,710
2017-06-27T14:34:38.555Z,815
2017-06-27T14:35:48.117Z,835
2017-06-27T14:36:57.346Z,840
2017-06-27T14:38:06.258Z,865
2017-06-27T14:39:15.736Z,955
2017-06-27T14:40:24.960Z,1005
2017-06-27T14:41:34.194Z,1005
2017-06-27T14:42:43.096Z,1075
2017-06-27T14:43:51.996Z,1135
2017-06-27T14:45:01.383Z,885
2017-06-27T14:46:10.287Z,940
2017-06-27T14:47:20.167Z,885
2017-06-27T14:48:29.072Z,850
2017-06-27T14:49:38.640Z,960
2017-06-27T14:50:48.339Z,1160
2017-06-27T14:51:57.246Z,1110
2017-06-27T14:53:06.473Z,1260
2017-06-27T14:54:15.706Z,1755
2017-06-27T14:55:24.937Z,1540
2017-06-27T14:56:33.945Z,1140
2017-06-27T14:57:43.499Z,855
2017-06-27T14:58:53.052Z,725
2017-06-27T15:00:02.278Z,665
2017-06-27T15:01:11.187Z,645
2017-06-27T15:02:21.371Z,650
2017-06-27T15:03:30.290Z,640
2017-06-27T15:04:39.848Z,615
2017-06-27T15:05:49.402Z,605
2017-06-27T15:06:58.640Z,585
2017-06-27T15:08:07.918Z,580
2017-06-27T15:09:17.799Z,570
2017-06-27T15:10:26.698Z,555
2017-06-27T15:11:36.250Z,545
2017-06-27T15:12:45.475Z,545
2017-06-27T15:13:54.848Z,545
2017-06-27T15:15:03.746Z,535
2017-06-27T15:16:12.651Z,525
2017-06-27T15:17:21.555Z,510
2017-06-27T15:18:30.775Z,495
2017-06-27T15:19:40.201Z,470
2017-06-27T15:20:49.759Z,455
2017-06-27T15:21:58.981Z,445
2017-06-27T15:23:08.860Z,435
2017-06-27T15:24:18.417Z,430
2017-06-27T15:25:27.555Z,435
2017-06-27T15:26:37.109Z,430
2017-06-27T15:27:46.335Z,435
2017-06-27T15:28:55.232Z,435
2017-06-27T15:30:04.454Z,440
2017-06-27T15:31:13.935Z,440
2017-06-27T15:32:23.157Z,450
2017-06-27T15:33:32.054Z,445
2017-06-27T15:34:40.953Z,450
2017-06-27T15:35:49.852Z,450
2017-06-27T15:36:59.003Z,455
2017-06-27T15:38:07.901Z,455
2017-06-27T15:39:17.451Z,460
2017-06-27T15:40:26.674Z,470
2017-06-27T15:41:35.571Z,470
2017-06-27T15:42:45.269Z,475
2017-06-27T15:43:54.494Z,475
2017-06-27T15:45:03.717Z,475
2017-06-27T15:46:12.961Z,470
2017-06-27T15:47:22.179Z,465
2017-06-27T15:48:31.778Z,460
2017-06-27T15:49:41.003Z,460
2017-06-27T15:50:50.225Z,450
2017-06-27T15:51:59.444Z,445
2017-06-27T15:53:08.669Z,430
2017-06-27T15:54:18.482Z,420
2017-06-27T15:55:27.378Z,410
2017-06-27T15:56:36.599Z,405
2017-06-27T15:57:46.146Z,395
2017-06-27T15:58:55.041Z,385
2017-06-27T16:00:04.363Z,365
2017-06-27T16:01:13.268Z,360
2017-06-27T16:02:22.166Z,350
2017-06-27T16:03:31.062Z,355